TRA31AP EGKK-EHAM
Flight info
| Callsign | TRA31AP |
|---|---|
| Flight time | 0h 43m |
| Altitude | 29000 |
| Route | FRANE M604 GASBA M197 REDFA |
| Aircraft | A320/M-SDE3FGHIRWY/LB1 |
Departure
| Time | 2026-05-05 18:19 |
|---|---|
| Airport | London Gatwick Airport (EGKK) |
Arrival
| Time | 2026-05-05 19:02 |
|---|---|
| Airport | Amsterdam Airport Schiphol (EHAM) |
| Time | Latitude | Longitude | Altitude | Speed | Heading |
|---|---|---|---|---|---|
| 2026-05-05 17:49 | 51.15556 | -0.17101 | 213 ft | 0 kts | 168° |
| 2026-05-05 18:03 | 51.15571 | -0.17107 | 215 ft | 4 kts | 168° |
| 2026-05-05 18:03 | 51.15597 | -0.17115 | 209 ft | 2 kts | 167° |
| 2026-05-05 18:04 | 51.15618 | -0.17119 | 211 ft | 4 kts | 203° |
| 2026-05-05 18:04 | 51.15635 | -0.17093 | 213 ft | 4 kts | 249° |
| 2026-05-05 18:04 | 51.15642 | -0.17054 | 208 ft | 4 kts | 257° |
| 2026-05-05 18:04 | 51.15647 | -0.17022 | 205 ft | 0 kts | 257° |
| 2026-05-05 18:07 | 51.15646 | -0.17024 | 205 ft | 1 kts | 257° |
| 2026-05-05 18:08 | 51.15640 | -0.17067 | 210 ft | 6 kts | 257° |
| 2026-05-05 18:08 | 51.15630 | -0.17140 | 215 ft | 8 kts | 257° |
| 2026-05-05 18:08 | 51.15616 | -0.17239 | 213 ft | 10 kts | 257° |
| 2026-05-05 18:08 | 51.15598 | -0.17353 | 207 ft | 10 kts | 255° |
| 2026-05-05 18:09 | 51.15559 | -0.17459 | 207 ft | 12 kts | 225° |
| 2026-05-05 18:09 | 51.15528 | -0.17589 | 210 ft | 14 kts | 258° |
| 2026-05-05 18:09 | 51.15506 | -0.17753 | 205 ft | 16 kts | 257° |
| 2026-05-05 18:09 | 51.15480 | -0.17944 | 209 ft | 19 kts | 258° |
| 2026-05-05 18:10 | 51.15457 | -0.18111 | 209 ft | 12 kts | 258° |
| 2026-05-05 18:10 | 51.15438 | -0.18240 | 205 ft | 12 kts | 250° |
| 2026-05-05 18:10 | 51.15361 | -0.18271 | 208 ft | 14 kts | 166° |
| 2026-05-05 18:10 | 51.15261 | -0.18236 | 205 ft | 13 kts | 168° |
| 2026-05-05 18:11 | 51.15190 | -0.18280 | 213 ft | 13 kts | 255° |
| 2026-05-05 18:11 | 51.15172 | -0.18437 | 213 ft | 16 kts | 258° |
| 2026-05-05 18:11 | 51.15146 | -0.18619 | 205 ft | 18 kts | 257° |
| 2026-05-05 18:11 | 51.15118 | -0.18830 | 208 ft | 21 kts | 257° |
| 2026-05-05 18:12 | 51.15085 | -0.19068 | 215 ft | 23 kts | 258° |
| 2026-05-05 18:12 | 51.15049 | -0.19333 | 205 ft | 26 kts | 257° |
| 2026-05-05 18:12 | 51.15009 | -0.19623 | 209 ft | 27 kts | 257° |
| 2026-05-05 18:12 | 51.14969 | -0.19910 | 209 ft | 25 kts | 257° |
| 2026-05-05 18:13 | 51.14932 | -0.20179 | 205 ft | 26 kts | 257° |
| 2026-05-05 18:13 | 51.14895 | -0.20441 | 210 ft | 25 kts | 257° |
| 2026-05-05 18:13 | 51.14857 | -0.20715 | 205 ft | 22 kts | 258° |
| 2026-05-05 18:13 | 51.14832 | -0.20914 | 208 ft | 11 kts | 258° |
| 2026-05-05 18:14 | 51.14819 | -0.21000 | 205 ft | 7 kts | 256° |
| 2026-05-05 18:14 | 51.14805 | -0.21093 | 207 ft | 10 kts | 257° |
| 2026-05-05 18:14 | 51.14781 | -0.21209 | 210 ft | 12 kts | 255° |
| 2026-05-05 18:14 | 51.14760 | -0.21352 | 205 ft | 13 kts | 256° |
| 2026-05-05 18:15 | 51.14702 | -0.21404 | 205 ft | 9 kts | 168° |
| 2026-05-05 18:15 | 51.14644 | -0.21344 | 208 ft | 11 kts | 153° |
| 2026-05-05 18:15 | 51.14571 | -0.21310 | 208 ft | 9 kts | 158° |
| 2026-05-05 18:15 | 51.14530 | -0.21255 | 205 ft | 7 kts | 129° |
| 2026-05-05 18:16 | 51.14518 | -0.21195 | 209 ft | 4 kts | 91° |
| 2026-05-05 18:16 | 51.14521 | -0.21172 | 209 ft | 0 kts | 79° |
| 2026-05-05 18:18 | 51.14523 | -0.21156 | 206 ft | 6 kts | 78° |
| 2026-05-05 18:18 | 51.14578 | -0.20757 | 209 ft | 73 kts | 77° |
| 2026-05-05 18:18 | 51.14732 | -0.19640 | 213 ft | 130 kts | 78° |
| 2026-05-05 18:18 | 51.14948 | -0.18052 | 495 ft | 148 kts | 78° |
| 2026-05-05 18:19 | 51.15165 | -0.16456 | 1168 ft | 147 kts | 78° |
| 2026-05-05 18:19 | 51.15382 | -0.14820 | 1665 ft | 160 kts | 77° |
| 2026-05-05 18:19 | 51.15635 | -0.12996 | 2029 ft | 178 kts | 76° |
| 2026-05-05 18:19 | 51.15925 | -0.10981 | 2361 ft | 199 kts | 76° |
| 2026-05-05 18:20 | 51.16242 | -0.08668 | 2674 ft | 227 kts | 77° |
| 2026-05-05 18:20 | 51.16590 | -0.06071 | 3129 ft | 250 kts | 76° |
| 2026-05-05 18:20 | 51.16905 | -0.03303 | 3480 ft | 258 kts | 85° |
| 2026-05-05 18:20 | 51.16891 | -0.00422 | 3866 ft | 261 kts | 89° |
| 2026-05-05 18:21 | 51.16820 | 0.02483 | 4618 ft | 263 kts | 89° |
| 2026-05-05 18:21 | 51.16736 | 0.05465 | 5410 ft | 272 kts | 90° |
| 2026-05-05 18:21 | 51.16655 | 0.08462 | 6526 ft | 270 kts | 89° |
| 2026-05-05 18:21 | 51.16596 | 0.11479 | 7438 ft | 275 kts | 89° |
| 2026-05-05 18:22 | 51.16552 | 0.14468 | 8223 ft | 280 kts | 89° |
| 2026-05-05 18:22 | 51.16524 | 0.17584 | 8965 ft | 283 kts | 88° |
| 2026-05-05 18:22 | 51.16533 | 0.20744 | 9700 ft | 287 kts | 88° |
| 2026-05-05 18:22 | 51.16562 | 0.23940 | 10371 ft | 290 kts | 87° |
| 2026-05-05 18:23 | 51.16598 | 0.27174 | 10954 ft | 294 kts | 88° |
| 2026-05-05 18:23 | 51.16615 | 0.30430 | 11371 ft | 294 kts | 89° |
| 2026-05-05 18:23 | 51.16605 | 0.33706 | 11738 ft | 296 kts | 89° |
| 2026-05-05 18:23 | 51.16594 | 0.36986 | 12065 ft | 297 kts | 89° |
| 2026-05-05 18:24 | 51.16593 | 0.40275 | 12316 ft | 297 kts | 89° |
| 2026-05-05 18:24 | 51.16601 | 0.43525 | 12564 ft | 298 kts | 89° |
| 2026-05-05 18:24 | 51.16610 | 0.46829 | 12821 ft | 299 kts | 89° |
| 2026-05-05 18:24 | 51.16883 | 0.50091 | 13059 ft | 298 kts | 71° |
| 2026-05-05 18:25 | 51.17860 | 0.52988 | 13131 ft | 297 kts | 50° |
| 2026-05-05 18:25 | 51.18833 | 0.54515 | 13139 ft | 297 kts | 37° |
| 2026-05-05 18:25 | 51.21322 | 0.56348 | 13137 ft | 297 kts | 13° |
| 2026-05-05 18:25 | 51.23341 | 0.57089 | 13127 ft | 298 kts | 13° |
| 2026-05-05 18:26 | 51.25364 | 0.57836 | 13114 ft | 298 kts | 13° |
| 2026-05-05 18:26 | 51.27387 | 0.58589 | 13102 ft | 298 kts | 13° |
| 2026-05-05 18:26 | 51.29406 | 0.59342 | 13092 ft | 298 kts | 13° |
| 2026-05-05 18:26 | 51.31425 | 0.60102 | 13077 ft | 298 kts | 14° |
| 2026-05-05 18:27 | 51.33443 | 0.60863 | 12947 ft | 298 kts | 14° |
| 2026-05-05 18:27 | 51.35466 | 0.61624 | 12944 ft | 299 kts | 13° |
| 2026-05-05 18:27 | 51.37496 | 0.62386 | 12946 ft | 300 kts | 13° |
| 2026-05-05 18:27 | 51.39512 | 0.63141 | 12951 ft | 310 kts | 13° |
| 2026-05-05 18:28 | 51.44029 | 0.64844 | 13521 ft | 348 kts | 13° |
| 2026-05-05 18:28 | 51.46402 | 0.65743 | 14158 ft | 353 kts | 13° |
| 2026-05-05 18:28 | 51.48801 | 0.66652 | 14804 ft | 356 kts | 13° |
| 2026-05-05 18:29 | 51.51224 | 0.67573 | 15481 ft | 358 kts | 13° |
| 2026-05-05 18:29 | 51.53663 | 0.68503 | 16143 ft | 361 kts | 13° |
| 2026-05-05 18:29 | 51.56110 | 0.69438 | 16749 ft | 363 kts | 13° |
| 2026-05-05 18:29 | 51.58579 | 0.70381 | 16923 ft | 364 kts | 13° |
| 2026-05-05 18:30 | 51.61052 | 0.71321 | 16949 ft | 365 kts | 13° |
| 2026-05-05 18:30 | 51.63526 | 0.72260 | 16947 ft | 365 kts | 13° |
| 2026-05-05 18:30 | 51.65995 | 0.73197 | 16947 ft | 365 kts | 13° |
| 2026-05-05 18:30 | 51.68436 | 0.74125 | 16948 ft | 365 kts | 13° |
| 2026-05-05 18:31 | 51.70906 | 0.75071 | 16947 ft | 365 kts | 13° |
| 2026-05-05 18:31 | 51.73380 | 0.76028 | 16962 ft | 366 kts | 14° |
| 2026-05-05 18:31 | 51.75842 | 0.77149 | 17564 ft | 369 kts | 17° |
| 2026-05-05 18:31 | 51.78292 | 0.78438 | 18274 ft | 371 kts | 21° |
| 2026-05-05 18:32 | 51.80585 | 0.80398 | 18834 ft | 376 kts | 35° |
| 2026-05-05 18:32 | 51.82570 | 0.83183 | 19327 ft | 383 kts | 47° |
| 2026-05-05 18:32 | 51.84171 | 0.86651 | 19850 ft | 388 kts | 59° |
| 2026-05-05 18:32 | 51.85285 | 0.90652 | 20388 ft | 393 kts | 72° |
| 2026-05-05 18:33 | 51.86077 | 0.94905 | 20957 ft | 397 kts | 73° |
| 2026-05-05 18:33 | 51.86868 | 0.99224 | 21515 ft | 400 kts | 73° |
| 2026-05-05 18:33 | 51.87655 | 1.03544 | 22151 ft | 401 kts | 73° |
| 2026-05-05 18:33 | 51.88442 | 1.07897 | 22722 ft | 404 kts | 74° |
| 2026-05-05 18:34 | 51.89225 | 1.12269 | 23258 ft | 407 kts | 74° |
| 2026-05-05 18:34 | 51.90005 | 1.16634 | 23735 ft | 410 kts | 74° |
| 2026-05-05 18:34 | 51.90804 | 1.21100 | 24150 ft | 414 kts | 74° |
| 2026-05-05 18:34 | 51.91610 | 1.25598 | 24564 ft | 417 kts | 75° |
| 2026-05-05 18:35 | 51.92421 | 1.30129 | 24955 ft | 421 kts | 75° |
| 2026-05-05 18:35 | 51.93241 | 1.34709 | 25352 ft | 424 kts | 75° |
| 2026-05-05 18:35 | 51.94066 | 1.39319 | 25757 ft | 427 kts | 75° |
| 2026-05-05 18:35 | 51.94891 | 1.43958 | 26147 ft | 430 kts | 75° |
| 2026-05-05 18:36 | 51.95718 | 1.48643 | 26539 ft | 433 kts | 76° |
| 2026-05-05 18:36 | 51.96546 | 1.53354 | 26878 ft | 436 kts | 76° |
| 2026-05-05 18:36 | 51.97378 | 1.58097 | 27256 ft | 437 kts | 76° |
| 2026-05-05 18:36 | 51.98192 | 1.62740 | 28279 ft | 420 kts | 76° |
| 2026-05-05 18:37 | 51.98973 | 1.67197 | 28717 ft | 413 kts | 76° |
| 2026-05-05 18:37 | 51.99739 | 1.71678 | 28923 ft | 414 kts | 77° |
| 2026-05-05 18:37 | 52.00473 | 1.76259 | 28960 ft | 426 kts | 78° |
| 2026-05-05 18:37 | 52.01194 | 1.80969 | 28955 ft | 434 kts | 78° |
| 2026-05-05 18:38 | 52.02635 | 1.90543 | 28955 ft | 437 kts | 78° |
| 2026-05-05 18:38 | 52.04096 | 2.00153 | 28952 ft | 443 kts | 78° |
| 2026-05-05 18:39 | 52.04841 | 2.05020 | 28380 ft | 442 kts | 78° |
| 2026-05-05 18:39 | 52.05582 | 2.09834 | 27757 ft | 438 kts | 78° |
| 2026-05-05 18:39 | 52.06319 | 2.14625 | 27119 ft | 435 kts | 78° |
| 2026-05-05 18:39 | 52.07048 | 2.19379 | 26504 ft | 432 kts | 78° |
| 2026-05-05 18:40 | 52.07767 | 2.24095 | 25898 ft | 429 kts | 77° |
| 2026-05-05 18:40 | 52.08470 | 2.28729 | 25305 ft | 426 kts | 77° |
| 2026-05-05 18:40 | 52.09182 | 2.33455 | 24714 ft | 424 kts | 78° |
| 2026-05-05 18:40 | 52.09874 | 2.38093 | 24140 ft | 421 kts | 77° |
| 2026-05-05 18:41 | 52.10552 | 2.42650 | 23590 ft | 419 kts | 77° |
| 2026-05-05 18:41 | 52.11294 | 2.47218 | 23047 ft | 415 kts | 72° |
| 2026-05-05 18:41 | 52.12450 | 2.51481 | 22616 ft | 410 kts | 62° |
| 2026-05-05 18:41 | 52.13889 | 2.55451 | 22275 ft | 403 kts | 60° |
| 2026-05-05 18:42 | 52.15307 | 2.59347 | 21921 ft | 398 kts | 60° |
| 2026-05-05 18:42 | 52.16707 | 2.63207 | 21559 ft | 394 kts | 60° |
| 2026-05-05 18:42 | 52.18092 | 2.67040 | 21200 ft | 390 kts | 60° |
| 2026-05-05 18:42 | 52.19459 | 2.70835 | 20837 ft | 388 kts | 60° |
| 2026-05-05 18:43 | 52.20820 | 2.74613 | 20480 ft | 385 kts | 60° |
| 2026-05-05 18:43 | 52.22167 | 2.78360 | 20124 ft | 382 kts | 60° |
| 2026-05-05 18:43 | 52.23509 | 2.82094 | 19772 ft | 379 kts | 60° |
| 2026-05-05 18:43 | 52.24835 | 2.85788 | 19424 ft | 377 kts | 60° |
| 2026-05-05 18:44 | 52.26158 | 2.89481 | 19073 ft | 376 kts | 59° |
| 2026-05-05 18:44 | 52.27472 | 2.93153 | 18726 ft | 374 kts | 59° |
| 2026-05-05 18:44 | 52.28778 | 2.96812 | 18367 ft | 372 kts | 59° |
| 2026-05-05 18:44 | 52.30074 | 3.00449 | 18094 ft | 370 kts | 59° |
| 2026-05-05 18:45 | 52.31364 | 3.04073 | 17784 ft | 367 kts | 59° |
| 2026-05-05 18:45 | 52.32642 | 3.07666 | 17365 ft | 366 kts | 59° |
| 2026-05-05 18:45 | 52.33921 | 3.11258 | 16971 ft | 365 kts | 59° |
| 2026-05-05 18:45 | 52.35193 | 3.14836 | 16632 ft | 363 kts | 59° |
| 2026-05-05 18:46 | 52.36456 | 3.18400 | 16370 ft | 362 kts | 59° |
| 2026-05-05 18:46 | 52.37715 | 3.21967 | 16110 ft | 361 kts | 59° |
| 2026-05-05 18:46 | 52.38970 | 3.25529 | 15855 ft | 360 kts | 59° |
| 2026-05-05 18:46 | 52.40217 | 3.29069 | 15606 ft | 359 kts | 59° |
| 2026-05-05 18:47 | 52.41464 | 3.32610 | 15351 ft | 358 kts | 59° |
| 2026-05-05 18:47 | 52.42704 | 3.36133 | 15101 ft | 357 kts | 59° |
| 2026-05-05 18:47 | 52.43939 | 3.39654 | 14858 ft | 356 kts | 60° |
| 2026-05-05 18:47 | 52.44933 | 3.43354 | 14613 ft | 354 kts | 71° |
| 2026-05-05 18:48 | 52.45551 | 3.47267 | 14365 ft | 355 kts | 77° |
| 2026-05-05 18:48 | 52.46111 | 3.51192 | 14134 ft | 352 kts | 77° |
| 2026-05-05 18:48 | 52.46668 | 3.55090 | 13901 ft | 351 kts | 76° |
| 2026-05-05 18:48 | 52.47223 | 3.58976 | 13649 ft | 351 kts | 76° |
| 2026-05-05 18:49 | 52.47776 | 3.62871 | 13201 ft | 349 kts | 76° |
| 2026-05-05 18:49 | 52.48327 | 3.66739 | 12675 ft | 348 kts | 76° |
| 2026-05-05 18:49 | 52.48877 | 3.70595 | 12183 ft | 345 kts | 76° |
| 2026-05-05 18:49 | 52.49418 | 3.74409 | 11744 ft | 341 kts | 76° |
| 2026-05-05 18:50 | 52.49773 | 3.76913 | 11426 ft | 340 kts | 76° |
| 2026-05-05 18:50 | 52.50305 | 3.80676 | 10978 ft | 337 kts | 76° |
| 2026-05-05 18:50 | 52.50830 | 3.84404 | 10567 ft | 334 kts | 76° |
| 2026-05-05 18:50 | 52.51341 | 3.88058 | 10424 ft | 322 kts | 76° |
| 2026-05-05 18:51 | 52.51826 | 3.91577 | 10307 ft | 310 kts | 78° |
| 2026-05-05 18:51 | 52.52043 | 3.95041 | 10169 ft | 301 kts | 89° |
| 2026-05-05 18:51 | 52.51884 | 3.98435 | 9902 ft | 297 kts | 99° |
| 2026-05-05 18:51 | 52.51168 | 4.01562 | 9601 ft | 293 kts | 124° |
| 2026-05-05 18:52 | 52.49809 | 4.04033 | 9257 ft | 291 kts | 136° |
| 2026-05-05 18:52 | 52.48333 | 4.06280 | 8926 ft | 288 kts | 137° |
| 2026-05-05 18:52 | 52.46854 | 4.08483 | 8573 ft | 287 kts | 137° |
| 2026-05-05 18:52 | 52.45386 | 4.10645 | 8218 ft | 286 kts | 137° |
| 2026-05-05 18:53 | 52.43900 | 4.12810 | 7862 ft | 286 kts | 137° |
| 2026-05-05 18:53 | 52.42407 | 4.14966 | 7540 ft | 284 kts | 137° |
| 2026-05-05 18:53 | 52.40931 | 4.17101 | 7266 ft | 281 kts | 137° |
| 2026-05-05 18:53 | 52.39442 | 4.19225 | 7113 ft | 284 kts | 137° |
| 2026-05-05 18:54 | 52.37959 | 4.21342 | 6809 ft | 281 kts | 137° |
| 2026-05-05 18:54 | 52.36482 | 4.23443 | 6466 ft | 281 kts | 137° |
| 2026-05-05 18:54 | 52.35000 | 4.25527 | 6126 ft | 280 kts | 138° |
| 2026-05-05 18:54 | 52.33532 | 4.27597 | 5828 ft | 277 kts | 137° |
| 2026-05-05 18:55 | 52.32072 | 4.29604 | 5470 ft | 278 kts | 137° |
| 2026-05-05 18:55 | 52.30560 | 4.31621 | 5142 ft | 275 kts | 137° |
| 2026-05-05 18:55 | 52.29101 | 4.33561 | 4695 ft | 274 kts | 137° |
| 2026-05-05 18:55 | 52.27629 | 4.35508 | 4378 ft | 271 kts | 137° |
| 2026-05-05 18:56 | 52.26163 | 4.37436 | 4044 ft | 269 kts | 137° |
| 2026-05-05 18:56 | 52.24751 | 4.39267 | 3874 ft | 250 kts | 137° |
| 2026-05-05 18:56 | 52.23412 | 4.40958 | 3577 ft | 238 kts | 137° |
| 2026-05-05 18:56 | 52.22247 | 4.42777 | 3102 ft | 226 kts | 115° |
| 2026-05-05 18:57 | 52.21768 | 4.45115 | 2886 ft | 211 kts | 95° |
| 2026-05-05 18:57 | 52.21533 | 4.47431 | 2758 ft | 202 kts | 93° |
| 2026-05-05 18:57 | 52.21335 | 4.49666 | 2580 ft | 197 kts | 93° |
| 2026-05-05 18:57 | 52.21160 | 4.51869 | 2479 ft | 194 kts | 87° |
| 2026-05-05 18:58 | 52.21361 | 4.53988 | 2387 ft | 187 kts | 64° |
| 2026-05-05 18:58 | 52.21995 | 4.55824 | 2334 ft | 187 kts | 55° |
| 2026-05-05 18:58 | 52.22691 | 4.57613 | 2258 ft | 187 kts | 56° |
| 2026-05-05 18:58 | 52.23386 | 4.59407 | 2055 ft | 186 kts | 56° |
| 2026-05-05 18:59 | 52.24077 | 4.61191 | 1821 ft | 185 kts | 56° |
| 2026-05-05 18:59 | 52.24744 | 4.62919 | 1575 ft | 177 kts | 55° |
| 2026-05-05 18:59 | 52.25372 | 4.64546 | 1353 ft | 162 kts | 55° |
| 2026-05-05 18:59 | 52.25940 | 4.66020 | 1131 ft | 142 kts | 55° |
| 2026-05-05 19:00 | 52.26442 | 4.67321 | 938 ft | 132 kts | 54° |
| 2026-05-05 19:00 | 52.26923 | 4.68567 | 757 ft | 128 kts | 54° |
| 2026-05-05 19:00 | 52.27399 | 4.69802 | 588 ft | 128 kts | 54° |
| 2026-05-05 19:00 | 52.27869 | 4.71035 | 403 ft | 128 kts | 54° |
| 2026-05-05 19:01 | 52.28337 | 4.72270 | 250 ft | 128 kts | 53° |
| 2026-05-05 19:01 | 52.28814 | 4.73479 | 104 ft | 126 kts | 54° |
| 2026-05-05 19:01 | 52.29272 | 4.74666 | 9 ft | 114 kts | 54° |
| 2026-05-05 19:01 | 52.29635 | 4.75594 | -2 ft | 80 kts | 57° |
| 2026-05-05 19:02 | 52.29888 | 4.76261 | -4 ft | 61 kts | 58° |
| 2026-05-05 19:02 | 52.30031 | 4.76538 | -3 ft | 23 kts | 31° |
| 2026-05-05 19:02 | 52.30115 | 4.76613 | -2 ft | 0 kts | 28° |
| 2026-05-05 19:02 | 52.30135 | 4.76630 | -2 ft | 6 kts | 28° |
| 2026-05-05 19:03 | 52.30179 | 4.76668 | -2 ft | 9 kts | 28° |
| 2026-05-05 19:03 | 52.30242 | 4.76722 | -2 ft | 12 kts | 27° |
| 2026-05-05 19:03 | 52.30310 | 4.76818 | -3 ft | 15 kts | 56° |
| 2026-05-05 19:03 | 52.30370 | 4.76972 | -3 ft | 18 kts | 58° |
| 2026-05-05 19:04 | 52.30441 | 4.77155 | -3 ft | 20 kts | 57° |
| 2026-05-05 19:04 | 52.30519 | 4.77358 | -3 ft | 16 kts | 59° |
| 2026-05-05 19:04 | 52.30567 | 4.77487 | -2 ft | 12 kts | 58° |
| 2026-05-05 19:04 | 52.30637 | 4.77584 | -2 ft | 15 kts | 15° |
| 2026-05-05 19:05 | 52.30751 | 4.77596 | -2 ft | 18 kts | 2° |
| 2026-05-05 19:05 | 52.30876 | 4.77608 | -2 ft | 14 kts | 3° |
| 2026-05-05 19:05 | 52.30965 | 4.77615 | -2 ft | 13 kts | 358° |
| 2026-05-05 19:05 | 52.31028 | 4.77551 | -2 ft | 12 kts | 303° |
| 2026-05-05 19:06 | 52.31062 | 4.77471 | -2 ft | 8 kts | 306° |
| 2026-05-05 19:06 | 52.31076 | 4.77382 | -2 ft | 7 kts | 272° |
| 2026-05-05 19:06 | 52.31073 | 4.77326 | -2 ft | 5 kts | 247° |
| 2026-05-05 19:06 | 52.31042 | 4.77307 | -2 ft | 3 kts | 185° |
| 2026-05-05 19:07 | 52.31026 | 4.77305 | -2 ft | 2 kts | 184° |
| 2026-05-05 19:07 | 52.31012 | 4.77304 | -2 ft | 1 kts | 183° |
| 2026-05-05 19:07 | 52.31003 | 4.77303 | -2 ft | 0 kts | 183° |